createdAt,value
2023-01-25T00:01:44.281Z,20.23
2023-01-25T00:04:12.342Z,19.20
2023-01-25T00:06:40.359Z,19.70
2023-01-25T00:09:08.301Z,24.70
2023-01-25T00:11:37.651Z,21.53
2023-01-25T00:14:06.530Z,21.10
2023-01-25T00:16:34.781Z,22.80
2023-01-25T00:19:04.239Z,19.20
2023-01-25T00:21:32.223Z,20.13
2023-01-25T00:24:00.260Z,22.03
2023-01-25T00:26:30.830Z,21.93
2023-01-25T00:28:58.857Z,21.27
2023-01-25T00:31:37.796Z,21.57
2023-01-25T00:34:39.714Z,19.80
2023-01-25T00:37:19.283Z,20.57
2023-01-25T00:39:47.286Z,21.70
2023-01-25T00:42:15.875Z,23.57
2023-01-25T00:44:46.720Z,21.37
2023-01-25T00:47:15.135Z,19.73
2023-01-25T00:49:46.002Z,20.17
2023-01-25T00:52:14.774Z,19.40
2023-01-25T00:54:43.164Z,19.67
2023-01-25T00:57:11.267Z,20.77
2023-01-25T00:59:44.301Z,18.47
2023-01-25T01:02:12.693Z,22.40
2023-01-25T01:04:40.731Z,22.80
2023-01-25T01:07:15.202Z,18.50
2023-01-25T01:09:43.175Z,20.13
2023-01-25T01:12:11.228Z,19.20
2023-01-25T01:14:39.281Z,21.60
2023-01-25T01:17:07.304Z,18.37
2023-01-25T01:19:35.377Z,20.10
2023-01-25T01:22:03.533Z,22.60
2023-01-25T01:24:33.004Z,16.30
2023-01-25T01:27:00.962Z,19.07
2023-01-25T01:29:28.899Z,17.40
2023-01-25T01:31:57.310Z,17.80
2023-01-25T01:34:27.171Z,19.80
2023-01-25T01:36:55.947Z,18.37
2023-01-25T01:39:24.564Z,20.07
2023-01-25T01:41:54.488Z,18.97
2023-01-25T01:44:43.393Z,20.20
2023-01-25T01:47:16.603Z,18.40
2023-01-25T01:49:48.493Z,19.23
2023-01-25T01:52:21.148Z,19.50
2023-01-25T01:54:54.232Z,20.57
2023-01-25T01:57:29.091Z,18.63
2023-01-25T02:00:01.575Z,18.57
2023-01-25T02:02:41.841Z,18.67
2023-01-25T02:05:18.492Z,19.63
2023-01-25T02:07:50.171Z,18.80
2023-01-25T02:10:21.963Z,17.57
2023-01-25T02:12:53.826Z,18.53
2023-01-25T02:15:21.946Z,18.63
2023-01-25T02:17:50.876Z,18.93
2023-01-25T02:20:24.359Z,20.87
2023-01-25T02:23:00.042Z,20.67
2023-01-25T02:25:30.079Z,19.93
2023-01-25T02:28:02.874Z,20.90
2023-01-25T02:30:31.798Z,19.97
2023-01-25T02:32:59.795Z,18.40
2023-01-25T02:35:40.092Z,20.90
2023-01-25T02:38:09.300Z,20.63
2023-01-25T02:40:45.448Z,19.17
2023-01-25T02:43:15.511Z,19.53
2023-01-25T02:45:46.964Z,17.83
2023-01-25T02:48:15.565Z,20.10
2023-01-25T02:50:43.968Z,20.63
2023-01-25T02:53:12.997Z,20.23
2023-01-25T02:55:42.392Z,17.60
2023-01-25T02:58:10.344Z,19.40
2023-01-25T03:00:38.323Z,17.33
2023-01-25T03:03:06.395Z,18.60
2023-01-25T03:05:35.206Z,17.90
2023-01-25T03:08:03.540Z,20.37
2023-01-25T03:10:31.605Z,19.20
2023-01-25T03:13:00.977Z,18.57
2023-01-25T03:15:29.213Z,20.17
2023-01-25T03:17:58.110Z,21.37
2023-01-25T03:20:26.107Z,21.27
2023-01-25T03:22:54.110Z,20.60
2023-01-25T03:25:23.799Z,18.50
2023-01-25T03:28:01.182Z,21.43
2023-01-25T03:30:29.494Z,18.30
2023-01-25T03:32:57.646Z,17.37
2023-01-25T03:35:25.816Z,18.80
2023-01-25T03:37:55.010Z,17.67
2023-01-25T03:40:23.015Z,16.67
2023-01-25T03:42:53.525Z,18.13
2023-01-25T03:45:22.943Z,20.00
2023-01-25T03:47:51.479Z,16.80
2023-01-25T03:50:20.770Z,18.87
2023-01-25T03:52:53.098Z,19.70
2023-01-25T03:55:21.189Z,20.37
2023-01-25T03:57:50.172Z,19.37
2023-01-25T04:00:20.032Z,20.07
2023-01-25T04:02:56.740Z,21.20
2023-01-25T04:05:24.788Z,16.87
2023-01-25T04:07:52.862Z,22.77
2023-01-25T04:10:29.670Z,17.97
2023-01-25T04:12:57.719Z,20.77
2023-01-25T04:15:25.805Z,17.17
2023-01-25T04:17:57.246Z,17.43
2023-01-25T04:20:25.598Z,17.33
2023-01-25T04:22:55.535Z,19.50
2023-01-25T04:25:28.372Z,17.37
2023-01-25T04:27:56.538Z,17.90
2023-01-25T04:30:25.391Z,17.47
2023-01-25T04:32:54.701Z,17.80
2023-01-25T04:35:28.807Z,18.07
2023-01-25T04:37:57.730Z,16.60
2023-01-25T04:40:29.682Z,15.73
2023-01-25T04:42:57.827Z,19.83
2023-01-25T04:45:30.520Z,13.73
2023-01-25T04:48:03.153Z,16.77
2023-01-25T04:50:34.628Z,16.17
2023-01-25T04:53:02.858Z,16.87
2023-01-25T04:55:33.741Z,13.47
2023-01-25T04:58:02.855Z,14.87
2023-01-25T05:00:32.343Z,13.80
2023-01-25T05:03:01.875Z,16.30
2023-01-25T05:05:29.929Z,13.90
2023-01-25T05:08:00.904Z,15.10
2023-01-25T05:10:30.413Z,15.37
2023-01-25T05:13:18.625Z,13.43
2023-01-25T05:15:47.763Z,15.77
2023-01-25T05:18:15.669Z,15.83
2023-01-25T05:20:44.287Z,14.37
2023-01-25T05:23:14.512Z,15.70
2023-01-25T05:26:01.894Z,16.80
2023-01-25T05:28:33.339Z,16.13
2023-01-25T05:31:17.620Z,14.80
2023-01-25T05:33:45.544Z,14.90
2023-01-25T05:36:13.595Z,14.50
2023-01-25T05:38:44.464Z,13.13
2023-01-25T05:41:14.179Z,15.47
2023-01-25T05:43:42.277Z,13.73
2023-01-25T05:46:11.117Z,12.93
2023-01-25T05:48:39.517Z,15.97
2023-01-25T05:51:07.809Z,17.50
2023-01-25T05:53:35.878Z,15.00
2023-01-25T05:56:10.269Z,13.70
2023-01-25T05:58:38.412Z,13.50
2023-01-25T06:01:07.860Z,13.30
2023-01-25T06:03:47.023Z,13.73
2023-01-25T06:06:15.599Z,14.63
2023-01-25T06:08:44.775Z,16.80
2023-01-25T06:11:16.181Z,13.10
2023-01-25T06:13:47.895Z,14.20
2023-01-25T06:16:16.427Z,12.30
2023-01-25T06:18:44.989Z,19.07
2023-01-25T06:21:23.726Z,13.60
2023-01-25T06:23:51.653Z,15.13
2023-01-25T06:26:21.369Z,12.43
2023-01-25T06:28:49.276Z,14.60
2023-01-25T06:31:18.874Z,13.30
2023-01-25T06:33:50.196Z,15.40
2023-01-25T06:36:21.259Z,13.13
2023-01-25T06:38:50.859Z,13.00
2023-01-25T06:41:19.199Z,14.90
2023-01-25T06:43:50.912Z,13.10
2023-01-25T06:46:19.417Z,13.17
2023-01-25T06:48:47.350Z,13.50
2023-01-25T06:51:16.258Z,14.37
2023-01-25T06:53:46.437Z,13.83
2023-01-25T06:56:17.579Z,15.57
2023-01-25T06:58:46.154Z,13.60
2023-01-25T07:01:19.643Z,12.67
2023-01-25T07:03:49.900Z,11.53
2023-01-25T07:06:18.183Z,12.53
2023-01-25T07:08:46.597Z,13.40
2023-01-25T07:11:15.106Z,13.43
2023-01-25T07:13:45.566Z,13.80
2023-01-25T07:16:16.836Z,11.70
2023-01-25T07:18:45.101Z,15.00
2023-01-25T07:21:15.733Z,13.50
2023-01-25T07:23:44.794Z,36.23
2023-01-25T07:26:17.819Z,22.43
2023-01-25T07:28:46.853Z,13.23
2023-01-25T07:31:16.877Z,31.23
2023-01-25T07:33:45.274Z,13.20
2023-01-25T07:36:13.781Z,16.33
2023-01-25T07:38:41.702Z,11.17
2023-01-25T07:41:09.656Z,9.73
2023-01-25T07:43:37.538Z,11.37
2023-01-25T07:46:07.469Z,11.90
2023-01-25T07:48:36.691Z,14.10
2023-01-25T07:51:13.038Z,14.43
2023-01-25T07:53:41.478Z,10.83
2023-01-25T07:56:10.471Z,14.43
2023-01-25T07:58:38.589Z,17.80
2023-01-25T08:01:09.950Z,13.00
2023-01-25T08:03:39.629Z,13.73
2023-01-25T08:06:09.026Z,12.77
2023-01-25T08:08:38.776Z,11.80
2023-01-25T08:11:11.163Z,13.30
2023-01-25T08:13:39.142Z,11.80
2023-01-25T08:16:07.333Z,15.80
2023-01-25T08:18:36.088Z,15.37
2023-01-25T08:21:06.661Z,14.50
2023-01-25T08:23:34.595Z,12.37
2023-01-25T08:26:06.506Z,11.13
2023-01-25T08:28:35.663Z,13.53
2023-01-25T08:31:08.008Z,12.93
2023-01-25T08:33:36.199Z,11.17
2023-01-25T08:36:04.606Z,11.07
2023-01-25T08:38:33.989Z,11.23
2023-01-25T08:41:06.637Z,11.37
2023-01-25T08:43:35.593Z,10.60
2023-01-25T08:46:04.020Z,10.53
2023-01-25T08:48:32.043Z,12.90
2023-01-25T08:51:00.139Z,10.30
2023-01-25T08:53:29.053Z,13.70
2023-01-25T08:56:03.116Z,10.60
2023-01-25T08:58:31.754Z,13.27
2023-01-25T09:01:04.252Z,32.27
2023-01-25T09:03:32.508Z,11.13
2023-01-25T09:06:00.526Z,11.53
2023-01-25T09:08:28.453Z,10.30
2023-01-25T09:11:01.209Z,13.40
2023-01-25T09:13:29.252Z,10.77
2023-01-25T09:16:00.896Z,12.57
2023-01-25T09:18:29.542Z,13.77
2023-01-25T09:20:57.505Z,11.73
2023-01-25T09:23:26.841Z,11.67
2023-01-25T09:25:59.557Z,10.23
2023-01-25T09:28:29.702Z,13.50
2023-01-25T09:31:18.877Z,13.20
2023-01-25T09:34:03.719Z,13.57
2023-01-25T09:36:31.603Z,13.33
2023-01-25T09:38:59.884Z,11.23
2023-01-25T09:41:47.427Z,10.87
2023-01-25T09:44:31.861Z,10.63
2023-01-25T09:47:02.896Z,10.77
2023-01-25T09:49:44.133Z,14.03
2023-01-25T09:52:30.045Z,13.10
2023-01-25T09:54:58.775Z,11.87
2023-01-25T09:57:34.287Z,13.47
2023-01-25T10:00:08.481Z,12.90
2023-01-25T10:02:45.228Z,10.87
2023-01-25T10:05:17.805Z,13.10
2023-01-25T10:07:55.882Z,12.33
2023-01-25T10:10:29.122Z,11.43
2023-01-25T10:12:58.362Z,11.87
2023-01-25T10:15:33.222Z,12.97
2023-01-25T10:18:06.456Z,12.37
2023-01-25T10:20:41.674Z,13.87
2023-01-25T10:23:28.125Z,13.97
2023-01-25T10:25:59.573Z,15.17
2023-01-25T10:28:40.631Z,13.23
2023-01-25T10:31:17.491Z,13.87
2023-01-25T10:33:47.265Z,12.40
2023-01-25T10:36:17.145Z,12.53
2023-01-25T10:38:47.253Z,13.73
2023-01-25T10:41:20.856Z,13.87
2023-01-25T10:44:10.096Z,15.43
2023-01-25T10:46:41.745Z,16.03
2023-01-25T10:49:22.718Z,21.83
2023-01-25T10:51:50.933Z,29.23
2023-01-25T10:54:18.803Z,31.23
2023-01-25T10:56:47.780Z,18.07
2023-01-25T10:59:21.604Z,12.20
2023-01-25T11:01:49.640Z,15.60
2023-01-25T11:04:33.186Z,13.73
2023-01-25T11:07:03.610Z,19.67
2023-01-25T11:09:40.937Z,18.27
2023-01-25T11:12:19.571Z,15.70
2023-01-25T11:14:53.338Z,14.00
2023-01-25T11:17:31.640Z,13.43
2023-01-25T11:20:17.363Z,17.97
2023-01-25T11:22:54.006Z,22.20
2023-01-25T11:25:33.546Z,17.80
2023-01-25T11:28:12.792Z,16.17
2023-01-25T11:30:42.115Z,26.63
2023-01-25T11:33:12.612Z,21.57
2023-01-25T11:35:53.601Z,39.03
2023-01-25T11:38:24.702Z,19.00
2023-01-25T11:40:58.577Z,22.93
2023-01-25T11:43:44.368Z,16.20
2023-01-25T11:46:26.308Z,15.60
2023-01-25T11:49:09.893Z,17.40
2023-01-25T11:51:44.275Z,18.30
2023-01-25T11:54:36.667Z,17.10
2023-01-25T11:57:13.285Z,20.60
2023-01-25T12:00:03.588Z,18.47
2023-01-25T12:03:05.585Z,27.87
2023-01-25T12:05:44.691Z,15.80
2023-01-25T12:08:38.763Z,17.17
2023-01-25T12:11:13.980Z,21.10
2023-01-25T12:13:51.323Z,22.20
2023-01-25T12:16:44.750Z,17.47
2023-01-25T12:19:35.222Z,14.60
2023-01-25T12:22:30.069Z,17.63
2023-01-25T12:25:03.949Z,17.97
2023-01-25T12:27:46.327Z,15.47
2023-01-25T12:30:19.714Z,15.50
2023-01-25T12:32:59.488Z,18.53
2023-01-25T12:35:36.924Z,16.20
2023-01-25T12:38:11.835Z,17.03
2023-01-25T12:40:49.875Z,15.17
2023-01-25T12:43:22.707Z,14.53
2023-01-25T12:45:52.403Z,17.57
2023-01-25T12:48:24.973Z,16.50
2023-01-25T12:50:57.234Z,14.60
2023-01-25T12:53:28.542Z,17.17
2023-01-25T12:55:58.571Z,15.63
2023-01-25T12:58:38.177Z,15.07
2023-01-25T13:01:13.984Z,16.60
2023-01-25T13:04:00.060Z,16.70
2023-01-25T13:06:40.364Z,17.90
2023-01-25T13:09:14.996Z,17.00
2023-01-25T13:11:44.634Z,15.67
2023-01-25T13:14:30.370Z,14.43
2023-01-25T13:17:13.416Z,17.23
2023-01-25T13:19:45.359Z,17.07
2023-01-25T13:22:35.391Z,14.80
2023-01-25T13:25:20.731Z,20.10
2023-01-25T13:27:48.776Z,17.13
2023-01-25T13:30:32.881Z,14.53
2023-01-25T13:33:07.425Z,15.67
2023-01-25T13:35:40.819Z,17.67
2023-01-25T13:38:38.347Z,18.20
2023-01-25T13:41:12.026Z,19.40
2023-01-25T13:43:42.604Z,20.63
2023-01-25T13:46:14.768Z,17.40
2023-01-25T13:49:08.073Z,20.17
2023-01-25T13:51:40.309Z,22.83
2023-01-25T13:54:16.866Z,18.30
2023-01-25T13:56:45.529Z,18.27
2023-01-25T13:59:27.494Z,19.30
2023-01-25T14:01:57.093Z,18.00
2023-01-25T14:04:25.350Z,20.03
2023-01-25T14:06:57.922Z,19.10
2023-01-25T14:09:27.471Z,18.83
2023-01-25T14:11:58.287Z,16.50
2023-01-25T14:14:28.573Z,18.07
2023-01-25T14:17:14.073Z,18.70
2023-01-25T14:19:44.406Z,18.97
2023-01-25T14:22:18.032Z,18.60
2023-01-25T14:24:47.368Z,22.17
2023-01-25T14:27:17.073Z,19.37
2023-01-25T14:29:49.642Z,22.37
2023-01-25T14:32:21.659Z,19.30
2023-01-25T14:34:49.572Z,20.47
2023-01-25T14:37:20.821Z,19.47
2023-01-25T14:39:51.916Z,18.57
2023-01-25T14:42:20.280Z,19.07
2023-01-25T14:44:48.681Z,17.77
2023-01-25T14:47:29.902Z,17.93
2023-01-25T14:50:30.604Z,20.00
2023-01-25T14:52:59.803Z,20.20
2023-01-25T14:55:29.557Z,20.23
2023-01-25T14:58:00.664Z,20.80
2023-01-25T15:00:32.054Z,20.00
2023-01-25T15:03:02.147Z,18.93
2023-01-25T15:05:32.981Z,21.47
2023-01-25T15:08:16.507Z,19.83
2023-01-25T15:10:56.912Z,19.83
2023-01-25T15:13:26.196Z,17.87
2023-01-25T15:16:03.445Z,19.27
2023-01-25T15:18:48.401Z,20.03
2023-01-25T15:21:18.616Z,22.00
2023-01-25T15:23:48.298Z,20.63
2023-01-25T15:26:20.247Z,19.13
2023-01-25T15:28:48.937Z,22.70
2023-01-25T15:31:28.120Z,20.87
2023-01-25T15:33:57.007Z,19.77
2023-01-25T15:36:25.301Z,23.27
2023-01-25T15:38:53.473Z,22.97
2023-01-25T15:41:21.759Z,21.90
2023-01-25T15:43:50.286Z,20.93
2023-01-25T15:46:22.662Z,23.87
2023-01-25T15:48:51.677Z,22.57
2023-01-25T15:51:20.100Z,20.87
2023-01-25T15:53:48.057Z,20.60
2023-01-25T15:56:18.856Z,21.20
2023-01-25T15:58:49.999Z,20.73
2023-01-25T16:01:19.878Z,21.27
2023-01-25T16:03:47.815Z,22.47
2023-01-25T16:06:36.558Z,22.93
2023-01-25T16:09:11.977Z,26.00
2023-01-25T16:11:39.915Z,22.70
2023-01-25T16:14:07.907Z,23.07
2023-01-25T16:16:40.858Z,22.30
2023-01-25T16:19:13.144Z,23.00
2023-01-25T16:21:41.612Z,25.40
2023-01-25T16:24:10.642Z,23.30
2023-01-25T16:26:40.717Z,22.33
2023-01-25T16:29:08.690Z,22.40
2023-01-25T16:31:38.059Z,21.93
2023-01-25T16:34:06.794Z,25.87
2023-01-25T16:36:35.557Z,22.17
2023-01-25T16:39:10.207Z,21.63
2023-01-25T16:41:38.746Z,20.40
2023-01-25T16:44:06.634Z,22.60
2023-01-25T16:46:34.850Z,21.87
2023-01-25T16:49:06.804Z,21.87
2023-01-25T16:51:34.807Z,20.20
2023-01-25T16:54:02.720Z,24.60
2023-01-25T16:56:33.357Z,20.17
2023-01-25T16:59:03.690Z,21.97
2023-01-25T17:01:32.121Z,23.00
2023-01-25T17:04:00.117Z,23.40
2023-01-25T17:06:31.774Z,23.77
2023-01-25T17:09:12.637Z,23.70
2023-01-25T17:11:44.918Z,25.87
2023-01-25T17:14:15.654Z,21.00
2023-01-25T17:16:44.978Z,33.23
2023-01-25T17:19:15.382Z,42.23
2023-01-25T17:21:45.026Z,51.63
2023-01-25T17:24:14.529Z,20.40
2023-01-25T17:26:42.972Z,22.43
2023-01-25T17:29:11.223Z,25.00
2023-01-25T17:31:42.013Z,25.50
2023-01-25T17:34:14.911Z,25.57
2023-01-25T17:36:44.675Z,24.53
2023-01-25T17:39:15.343Z,31.40
2023-01-25T17:41:44.096Z,23.30
2023-01-25T17:44:12.691Z,22.90
2023-01-25T17:46:40.747Z,22.37
2023-01-25T17:49:12.233Z,25.23
2023-01-25T17:51:40.502Z,22.67
2023-01-25T17:54:11.458Z,23.63
2023-01-25T17:56:39.899Z,33.57
2023-01-25T17:59:11.401Z,23.17
2023-01-25T18:01:42.509Z,23.47
2023-01-25T18:04:11.011Z,22.20
2023-01-25T18:06:39.156Z,23.87
2023-01-25T18:09:07.695Z,30.47
2023-01-25T18:11:39.960Z,32.90
2023-01-25T18:14:09.509Z,25.30
2023-01-25T18:16:39.678Z,50.07
2023-01-25T18:19:08.358Z,24.70
2023-01-25T18:21:36.787Z,25.97
2023-01-25T18:24:07.059Z,22.03
2023-01-25T18:26:37.996Z,23.40
2023-01-25T18:29:32.590Z,23.03
2023-01-25T18:32:00.704Z,24.20
2023-01-25T18:34:28.637Z,24.43
2023-01-25T18:36:59.237Z,22.20
2023-01-25T18:39:28.150Z,23.27
2023-01-25T18:41:57.454Z,20.63
2023-01-25T18:44:25.591Z,24.80
2023-01-25T18:46:53.465Z,20.50
2023-01-25T18:49:21.448Z,20.63
2023-01-25T18:52:08.457Z,25.90
2023-01-25T18:54:37.228Z,19.40
2023-01-25T18:57:06.704Z,18.37
2023-01-25T18:59:34.690Z,22.03
2023-01-25T19:02:02.670Z,18.27
2023-01-25T19:04:30.799Z,20.80
2023-01-25T19:07:01.337Z,24.83
2023-01-25T19:09:30.136Z,22.40
2023-01-25T19:11:58.462Z,35.10
2023-01-25T19:14:27.807Z,20.70
2023-01-25T19:16:55.698Z,26.57
2023-01-25T19:19:23.865Z,33.50
2023-01-25T19:21:51.847Z,31.80
2023-01-25T19:24:20.828Z,31.20
2023-01-25T19:26:48.818Z,36.63
2023-01-25T19:29:16.988Z,24.47
2023-01-25T19:31:46.367Z,22.60
2023-01-25T19:34:14.392Z,22.60
2023-01-25T19:36:45.711Z,24.43
2023-01-25T19:39:14.403Z,28.13
2023-01-25T19:41:42.420Z,27.73
2023-01-25T19:44:12.560Z,26.40
2023-01-25T19:46:40.905Z,20.73
2023-01-25T19:49:13.132Z,23.83
2023-01-25T19:51:44.351Z,24.60
2023-01-25T19:54:16.703Z,23.57
2023-01-25T19:56:46.452Z,26.10
2023-01-25T19:59:15.817Z,22.77
2023-01-25T20:01:45.184Z,20.67
2023-01-25T20:04:19.565Z,23.57
2023-01-25T20:06:48.168Z,23.37
2023-01-25T20:09:17.329Z,20.47
2023-01-25T20:11:46.102Z,22.50
2023-01-25T20:14:15.133Z,23.77
2023-01-25T20:16:43.128Z,22.67
2023-01-25T20:19:12.779Z,21.17
2023-01-25T20:21:42.094Z,23.03
2023-01-25T20:24:10.565Z,22.07
2023-01-25T20:26:42.906Z,21.97
2023-01-25T20:29:12.098Z,23.27
2023-01-25T20:31:41.712Z,21.00
2023-01-25T20:34:12.743Z,23.63
2023-01-25T20:36:42.999Z,23.03
2023-01-25T20:39:13.435Z,24.70
2023-01-25T20:41:41.862Z,24.33
2023-01-25T20:44:11.332Z,23.10
2023-01-25T20:46:40.492Z,26.10
2023-01-25T20:49:12.623Z,25.63
2023-01-25T20:51:42.880Z,26.33
2023-01-25T20:54:11.225Z,25.83
2023-01-25T20:56:39.567Z,27.93
2023-01-25T20:59:07.698Z,29.17
2023-01-25T21:01:37.041Z,30.97
2023-01-25T21:04:06.889Z,31.20
2023-01-25T21:06:35.580Z,28.63
2023-01-25T21:09:05.828Z,29.90
2023-01-25T21:11:34.617Z,33.13
2023-01-25T21:14:02.688Z,33.33
2023-01-25T21:16:31.078Z,27.77
2023-01-25T21:19:00.565Z,27.47
2023-01-25T21:21:30.195Z,25.70
2023-01-25T21:24:02.363Z,26.43
2023-01-25T21:26:33.153Z,29.17
2023-01-25T21:29:06.260Z,27.37
2023-01-25T21:31:35.936Z,26.70
2023-01-25T21:34:04.833Z,26.87
2023-01-25T21:36:33.204Z,29.23
2023-01-25T21:39:01.118Z,29.10
2023-01-25T21:41:33.455Z,28.17
2023-01-25T21:44:20.079Z,28.53
2023-01-25T21:49:55.885Z,29.33
2023-01-25T21:52:23.811Z,31.43
2023-01-25T21:54:51.695Z,28.70
2023-01-25T21:57:21.041Z,30.57
2023-01-25T21:59:49.030Z,29.63
2023-01-25T22:02:17.071Z,30.53
2023-01-25T22:04:44.986Z,34.03
2023-01-25T22:07:13.001Z,32.13
2023-01-25T22:09:40.918Z,27.77
2023-01-25T22:12:09.260Z,30.43
2023-01-25T22:14:38.563Z,27.40
2023-01-25T22:17:06.448Z,29.53
2023-01-25T22:19:34.369Z,28.67
2023-01-25T22:22:02.328Z,30.70
2023-01-25T22:24:30.247Z,32.67
2023-01-25T22:27:09.820Z,30.80
2023-01-25T22:29:39.051Z,30.33
2023-01-25T22:32:07.102Z,29.30
2023-01-25T22:34:35.033Z,28.73
2023-01-25T22:37:02.921Z,29.43
2023-01-25T22:39:30.827Z,27.80
2023-01-25T22:41:58.791Z,30.20
2023-01-25T22:44:26.662Z,29.83
2023-01-25T22:46:55.920Z,29.97
2023-01-25T22:49:23.834Z,29.90
2023-01-25T22:51:51.704Z,29.60
2023-01-25T22:54:19.796Z,28.33
2023-01-25T22:56:47.676Z,28.67
2023-01-25T22:59:19.070Z,34.77
2023-01-25T23:01:47.146Z,30.70
2023-01-25T23:04:16.460Z,31.50
2023-01-25T23:06:44.436Z,32.37
2023-01-25T23:09:12.566Z,30.30
2023-01-25T23:11:40.441Z,29.50
2023-01-25T23:14:29.718Z,30.27
2023-01-25T23:17:17.882Z,27.83
2023-01-25T23:19:46.245Z,27.00
2023-01-25T23:22:14.324Z,27.50
2023-01-25T23:24:43.233Z,29.30
2023-01-25T23:27:12.498Z,32.63
2023-01-25T23:29:40.644Z,33.47
2023-01-25T23:32:08.558Z,31.87
2023-01-25T23:34:39.460Z,33.87
2023-01-25T23:37:08.759Z,33.10
2023-01-25T23:39:36.694Z,29.17
2023-01-25T23:42:05.128Z,30.27
2023-01-25T23:44:33.099Z,34.53
2023-01-25T23:47:01.625Z,25.77
2023-01-25T23:49:29.567Z,30.13
2023-01-25T23:51:57.518Z,34.17
2023-01-25T23:54:27.035Z,31.53
2023-01-25T23:56:58.527Z,29.73
2023-01-25T23:59:26.694Z,29.20
